Oglasa — ITMG — position and weather

sailwx.info

Track history (hours):
 
Tides and Currents Weather Stations Pressure Air Temp Water Temp Dewpoint Dewpoint Depression Visibility Wind Speed Wind Dir Waves Ship Positions

Oglasa

Last reported at 2014-Jul-23 03:31 UTC. Time now 2014-Jul-23 05:20 UTC.
Position N 42°53' E 010°26'.

Length 91 m; draft 3.6 m.

Type: Ship. MMSI: 247046800.

Date/timePositionNaut miles runAvg speedWind from/ knotsBaromVisibWave heightAir tempDewpointWater temp
2014-Jul-23 03:31N 42°53' E 010°26'6 6.6
2014-Jul-23 02:34N 42°49' E 010°19'0 0.0
2014-Jul-23 01:33N 42°49' E 010°19'0 0.0
2014-Jul-23 00:33N 42°49' E 010°19'0 0.0
2014-Jul-22 23:33N 42°49' E 010°19'0 0.0
2014-Jul-22 22:33N 42°49' E 010°19'0 0.0
2014-Jul-22 21:33N 42°49' E 010°19'0 0.0
2014-Jul-22 20:33N 42°49' E 010°19'0 0.0
2014-Jul-22 19:28N 42°49' E 010°19'0 0.0
2014-Jul-22 18:33N 42°49' E 010°19'0 0.0
2014-Jul-22 17:04N 42°49' E 010°19'0 0.0
2014-Jul-22 16:33N 42°49' E 010°19'0 0.0
2014-Jul-22 15:33N 42°49' E 010°19'12 8.6
2014-Jul-22 14:09N 42°56' E 010°33'610.4
2014-Jul-22 13:34N 42°53' E 010°26'6 6.1
2014-Jul-22 12:34N 42°49' E 010°19'2 0.2
2014-Jul-22 03:17N 42°50' E 010°22'4 0.3
2014-Jul-21 15:31N 42°53' E 010°25'6 0.3
2014-Jul-20 17:32N 42°49' E 010°19'12 8.4
2014-Jul-20 16:04N 42°56' E 010°33'713.9
2014-Jul-20 15:34N 42°53' E 010°24'5 5.2
2014-Jul-20 14:32N 42°49' E 010°19'7 3.4
2014-Jul-20 12:33N 42°53' E 010°27'7 6.5
2014-Jul-20 11:30N 42°49' E 010°19'7 3.5
2014-Jul-20 09:34N 42°53' E 010°27'7 6.6
2014-Jul-20 08:32N 42°49' E 010°19'7 3.3
2014-Jul-20 06:33N 42°53' E 010°26'7 6.3
2014-Jul-20 05:30N 42°49' E 010°19'7 3.6
2014-Jul-20 03:34N 42°53' E 010°27'7 2.8
2014-Jul-20 01:07N 42°49' E 010°19'0 0.0
2014-Jul-19 17:26N 42°49' E 010°20'7 3.5
2014-Jul-19 15:34N 42°53' E 010°26'7 6.2
2014-Jul-19 14:30N 42°49' E 010°20'6 3.3
2014-Jul-19 12:34N 42°53' E 010°26'6 6.2
2014-Jul-19 11:31N 42°49' E 010°19'6 3.2
2014-Jul-19 09:34N 42°53' E 010°26'6 6.3
2014-Jul-19 08:34N 42°49' E 010°20'7 3.4
2014-Jul-19 06:33N 42°53' E 010°27'7 6.8
2014-Jul-19 05:33N 42°49' E 010°19'7 3.5
2014-Jul-19 03:34N 42°53' E 010°27'7 6.9
2014-Jul-19 02:33N 42°49' E 010°19'0 0.0
2014-Jul-19 01:33N 42°49' E 010°19'0 0.0
2014-Jul-19 00:31N 42°49' E 010°19'0 0.0
2014-Jul-18 23:22N 42°49' E 010°19'0 0.0
2014-Jul-18 22:31N 42°49' E 010°19'0 0.0
2014-Jul-18 20:07N 42°49' E 010°19'0 0.0
2014-Jul-18 19:32N 42°49' E 010°19'0 0.0
2014-Jul-18 18:33N 42°49' E 010°19'0 0.0
2014-Jul-18 17:33N 42°49' E 010°19'7 3.3
2014-Jul-18 15:33N 42°53' E 010°26'7 6.4
2014-Jul-18 14:31N 42°49' E 010°19'6 3.3
2014-Jul-18 12:33N 42°53' E 010°26'6 6.4
2014-Jul-18 11:33N 42°49' E 010°19'6 3.1
2014-Jul-18 09:33N 42°53' E 010°26'6 6.2
2014-Jul-18 08:33N 42°49' E 010°19'1212.1
2014-Jul-18 07:33N 42°56' E 010°33'5 5.4
2014-Jul-18 06:33N 42°53' E 010°26'7 6.8
2014-Jul-18 05:34N 42°49' E 010°19'12 9.9
2014-Jul-18 04:21N 42°56' E 010°33'5 6.7
2014-Jul-18 03:33N 42°53' E 010°27'7 1.5
2014-Jul-17 23:06N 42°49' E 010°19'0 0.0
2014-Jul-17 15:32N 42°49' E 010°19'7 3.4
2014-Jul-17 13:33N 42°53' E 010°26'7 5.9
2014-Jul-17 12:26N 42°49' E 010°20'6 3.3
2014-Jul-17 10:34N 42°53' E 010°26'4 3.2
2014-Jul-17 09:17N 42°50' E 010°22'10 4.5
2014-Jul-17 07:05N 42°56' E 010°33'510.5
2014-Jul-17 06:34N 42°53' E 010°26'7 6.7
2014-Jul-17 05:33N 42°49' E 010°19'1211.8
2014-Jul-17 04:31N 42°56' E 010°33'5 5.3
2014-Jul-17 03:34N 42°53' E 010°27'7 5.3
2014-Jul-17 02:12N 42°49' E 010°19'0 0.0
2014-Jul-17 01:33N 42°49' E 010°19'0 0.0
2014-Jul-17 00:31N 42°49' E 010°19'0 0.0
2014-Jul-16 23:33N 42°49' E 010°19'0 0.0
2014-Jul-16 22:24N 42°49' E 010°19'0 0.0
2014-Jul-16 21:21N 42°49' E 010°19'0 0.0
2014-Jul-16 20:31N 42°49' E 010°19'0 0.0
2014-Jul-16 17:31N 42°49' E 010°19'0 0.0
2014-Jul-16 16:34N 42°49' E 010°19'0 0.0
2014-Jul-16 15:34N 42°49' E 010°19'7 3.3
2014-Jul-16 13:33N 42°53' E 010°26'7 6.2
2014-Jul-16 12:29N 42°49' E 010°19'6 3.3
2014-Jul-16 10:33N 42°53' E 010°26'6 6.0
2014-Jul-16 09:30N 42°49' E 010°19'12 9.2
2014-Jul-16 08:12N 42°56' E 010°33'0 0.0
2014-Jul-16 07:29N 42°56' E 010°33'5 5.8
2014-Jul-16 06:34N 42°53' E 010°27'7 6.8
2014-Jul-16 05:33N 42°49' E 010°19'7 3.4
2014-Jul-16 03:34N 42°53' E 010°26'7 6.7
2014-Jul-16 02:33N 42°49' E 010°19'0 0.0
2014-Jul-16 01:33N 42°49' E 010°19'0 0.0
2014-Jul-16 00:32N 42°49' E 010°19'0 0.0
2014-Jul-15 23:33N 42°49' E 010°19'0 0.0
2014-Jul-15 22:33N 42°49' E 010°19'0 0.0
2014-Jul-15 21:33N 42°49' E 010°19'0 0.0
2014-Jul-15 17:27N 42°49' E 010°19'0 0.0
2014-Jul-15 15:31N 42°49' E 010°19'6 3.1
2014-Jul-15 13:33N 42°53' E 010°25'6 6.0
2014-Jul-15 12:32N 42°49' E 010°19'1210.5
2014-Jul-15 11:22N 42°56' E 010°33'5 6.7
2014-Jul-15 10:33N 42°53' E 010°26'7 6.7
2014-Jul-15 09:33N 42°49' E 010°19'1212.2
2014-Jul-15 08:33N 42°56' E 010°33'5 1.7
2014-Jul-15 05:33N 42°53' E 010°27'7 6.4
2014-Jul-15 04:28N 42°49' E 010°20'1 0.1
2014-Jul-14 16:21N 42°49' E 010°21'  
Track history (hours):
 
Tides and Currents Weather Stations Pressure Air Temp Water Temp Dewpoint Dewpoint Depression Visibility Wind Speed Wind Dir Waves Ship Positions

Oglasa

Last reported at 2014-Jul-23 03:31 UTC. Time now 2014-Jul-23 05:20 UTC.
Position N 42°53' E 010°26'.

Length 91 m; draft 3.6 m.

Type: Ship. MMSI: 247046800.

Date/timePositionNaut miles runAvg speedWind from/ knotsBaromVisibWave heightAir tempDewpointWater temp
2014-Jul-23 03:31N 42°53' E 010°26'6 6.6
2014-Jul-23 02:34N 42°49' E 010°19'0 0.0
2014-Jul-23 01:33N 42°49' E 010°19'0 0.0
2014-Jul-23 00:33N 42°49' E 010°19'0 0.0
2014-Jul-22 23:33N 42°49' E 010°19'0 0.0
2014-Jul-22 22:33N 42°49' E 010°19'0 0.0
2014-Jul-22 21:33N 42°49' E 010°19'0 0.0
2014-Jul-22 20:33N 42°49' E 010°19'0 0.0
2014-Jul-22 19:28N 42°49' E 010°19'0 0.0
2014-Jul-22 18:33N 42°49' E 010°19'0 0.0
2014-Jul-22 17:04N 42°49' E 010°19'0 0.0
2014-Jul-22 16:33N 42°49' E 010°19'0 0.0
2014-Jul-22 15:33N 42°49' E 010°19'12 8.6
2014-Jul-22 14:09N 42°56' E 010°33'610.4
2014-Jul-22 13:34N 42°53' E 010°26'6 6.1
2014-Jul-22 12:34N 42°49' E 010°19'2 0.2
2014-Jul-22 03:17N 42°50' E 010°22'4 0.3
2014-Jul-21 15:31N 42°53' E 010°25'6 0.3
2014-Jul-20 17:32N 42°49' E 010°19'12 8.4
2014-Jul-20 16:04N 42°56' E 010°33'713.9
2014-Jul-20 15:34N 42°53' E 010°24'5 5.2
2014-Jul-20 14:32N 42°49' E 010°19'7 3.4
2014-Jul-20 12:33N 42°53' E 010°27'7 6.5
2014-Jul-20 11:30N 42°49' E 010°19'7 3.5
2014-Jul-20 09:34N 42°53' E 010°27'7 6.6
2014-Jul-20 08:32N 42°49' E 010°19'7 3.3
2014-Jul-20 06:33N 42°53' E 010°26'7 6.3
2014-Jul-20 05:30N 42°49' E 010°19'7 3.6
2014-Jul-20 03:34N 42°53' E 010°27'7 2.8
2014-Jul-20 01:07N 42°49' E 010°19'0 0.0
2014-Jul-19 17:26N 42°49' E 010°20'7 3.5
2014-Jul-19 15:34N 42°53' E 010°26'7 6.2
2014-Jul-19 14:30N 42°49' E 010°20'6 3.3
2014-Jul-19 12:34N 42°53' E 010°26'6 6.2
2014-Jul-19 11:31N 42°49' E 010°19'6 3.2
2014-Jul-19 09:34N 42°53' E 010°26'6 6.3
2014-Jul-19 08:34N 42°49' E 010°20'7 3.4
2014-Jul-19 06:33N 42°53' E 010°27'7 6.8
2014-Jul-19 05:33N 42°49' E 010°19'7 3.5
2014-Jul-19 03:34N 42°53' E 010°27'7 6.9
2014-Jul-19 02:33N 42°49' E 010°19'0 0.0
2014-Jul-19 01:33N 42°49' E 010°19'0 0.0
2014-Jul-19 00:31N 42°49' E 010°19'0 0.0
2014-Jul-18 23:22N 42°49' E 010°19'0 0.0
2014-Jul-18 22:31N 42°49' E 010°19'0 0.0
2014-Jul-18 20:07N 42°49' E 010°19'0 0.0
2014-Jul-18 19:32N 42°49' E 010°19'0 0.0
2014-Jul-18 18:33N 42°49' E 010°19'0 0.0
2014-Jul-18 17:33N 42°49' E 010°19'7 3.3
2014-Jul-18 15:33N 42°53' E 010°26'7 6.4
2014-Jul-18 14:31N 42°49' E 010°19'6 3.3
2014-Jul-18 12:33N 42°53' E 010°26'6 6.4
2014-Jul-18 11:33N 42°49' E 010°19'6 3.1
2014-Jul-18 09:33N 42°53' E 010°26'6 6.2
2014-Jul-18 08:33N 42°49' E 010°19'1212.1
2014-Jul-18 07:33N 42°56' E 010°33'5 5.4
2014-Jul-18 06:33N 42°53' E 010°26'7 6.8
2014-Jul-18 05:34N 42°49' E 010°19'12 9.9
2014-Jul-18 04:21N 42°56' E 010°33'5 6.7
2014-Jul-18 03:33N 42°53' E 010°27'7 1.5
2014-Jul-17 23:06N 42°49' E 010°19'0 0.0
2014-Jul-17 15:32N 42°49' E 010°19'7 3.4
2014-Jul-17 13:33N 42°53' E 010°26'7 5.9
2014-Jul-17 12:26N 42°49' E 010°20'6 3.3
2014-Jul-17 10:34N 42°53' E 010°26'4 3.2
2014-Jul-17 09:17N 42°50' E 010°22'10 4.5
2014-Jul-17 07:05N 42°56' E 010°33'510.5
2014-Jul-17 06:34N 42°53' E 010°26'7 6.7
2014-Jul-17 05:33N 42°49' E 010°19'1211.8
2014-Jul-17 04:31N 42°56' E 010°33'5 5.3
2014-Jul-17 03:34N 42°53' E 010°27'7 5.3
2014-Jul-17 02:12N 42°49' E 010°19'0 0.0
2014-Jul-17 01:33N 42°49' E 010°19'0 0.0
2014-Jul-17 00:31N 42°49' E 010°19'0 0.0
2014-Jul-16 23:33N 42°49' E 010°19'0 0.0
2014-Jul-16 22:24N 42°49' E 010°19'0 0.0
2014-Jul-16 21:21N 42°49' E 010°19'0 0.0
2014-Jul-16 20:31N 42°49' E 010°19'0 0.0
2014-Jul-16 17:31N 42°49' E 010°19'0 0.0
2014-Jul-16 16:34N 42°49' E 010°19'0 0.0
2014-Jul-16 15:34N 42°49' E 010°19'7 3.3
2014-Jul-16 13:33N 42°53' E 010°26'7 6.2
2014-Jul-16 12:29N 42°49' E 010°19'6 3.3
2014-Jul-16 10:33N 42°53' E 010°26'6 6.0
2014-Jul-16 09:30N 42°49' E 010°19'12 9.2
2014-Jul-16 08:12N 42°56' E 010°33'0 0.0
2014-Jul-16 07:29N 42°56' E 010°33'5 5.8
2014-Jul-16 06:34N 42°53' E 010°27'7 6.8
2014-Jul-16 05:33N 42°49' E 010°19'7 3.4
2014-Jul-16 03:34N 42°53' E 010°26'7 6.7
2014-Jul-16 02:33N 42°49' E 010°19'0 0.0
2014-Jul-16 01:33N 42°49' E 010°19'0 0.0
2014-Jul-16 00:32N 42°49' E 010°19'0 0.0
2014-Jul-15 23:33N 42°49' E 010°19'0 0.0
2014-Jul-15 22:33N 42°49' E 010°19'0 0.0
2014-Jul-15 21:33N 42°49' E 010°19'0 0.0
2014-Jul-15 17:27N 42°49' E 010°19'0 0.0
2014-Jul-15 15:31N 42°49' E 010°19'6 3.1
2014-Jul-15 13:33N 42°53' E 010°25'6 6.0
2014-Jul-15 12:32N 42°49' E 010°19'1210.5
2014-Jul-15 11:22N 42°56' E 010°33'5 6.7
2014-Jul-15 10:33N 42°53' E 010°26'7 6.7
2014-Jul-15 09:33N 42°49' E 010°19'1212.2
2014-Jul-15 08:33N 42°56' E 010°33'5 1.7
2014-Jul-15 05:33N 42°53' E 010°27'7 6.4
2014-Jul-15 04:28N 42°49' E 010°20'1 0.1
2014-Jul-14 16:21N 42°49' E 010°21'  

Dump ship's entire track history